sensor_id;sensor_type;location;lat;lon;timestamp;pressure;altitude;pressure_sealevel;temperature;humidity
47815;BME280;33579;50.058;18.130;2023-12-28T00:00:34;99447.59;;;4.32;100.00
47815;BME280;33579;50.058;18.130;2023-12-28T00:01:36;99450.41;;;4.29;100.00
47815;BME280;33579;50.058;18.130;2023-12-28T00:02:38;99463.69;;;4.24;100.00
47815;BME280;33579;50.058;18.130;2023-12-28T00:03:40;99451.47;;;4.25;100.00
47815;BME280;33579;50.058;18.130;2023-12-28T00:04:41;99450.66;;;4.24;100.00
47815;BME280;33579;50.058;18.130;2023-12-28T00:05:43;99452.16;;;4.28;100.00
47815;BME280;33579;50.058;18.130;2023-12-28T00:06:45;99454.00;;;4.26;100.00
47815;BME280;33579;50.058;18.130;2023-12-28T00:07:47;99448.97;;;4.23;100.00
47815;BME280;33579;50.058;18.130;2023-12-28T00:08:49;99449.16;;;4.20;100.00
47815;BME280;33579;50.058;18.130;2023-12-28T00:10:05;99443.16;;;4.18;100.00
47815;BME280;33579;50.058;18.130;2023-12-28T00:11:07;99452.59;;;4.20;100.00
47815;BME280;33579;50.058;18.130;2023-12-28T00:12:08;99446.88;;;4.14;100.00
47815;BME280;33579;50.058;18.130;2023-12-28T00:13:10;99454.38;;;4.20;100.00
47815;BME280;33579;50.058;18.130;2023-12-28T00:14:12;99451.47;;;4.25;100.00
47815;BME280;33579;50.058;18.130;2023-12-28T00:15:14;99452.31;;;4.25;100.00
47815;BME280;33579;50.058;18.130;2023-12-28T00:16:16;99449.81;;;4.24;100.00
47815;BME280;33579;50.058;18.130;2023-12-28T00:17:18;99442.16;;;4.20;100.00
47815;BME280;33579;50.058;18.130;2023-12-28T00:18:19;99446.69;;;4.17;100.00
47815;BME280;33579;50.058;18.130;2023-12-28T00:19:24;99443.34;;;4.15;100.00
47815;BME280;33579;50.058;18.130;2023-12-28T00:20:26;99443.34;;;4.15;100.00
47815;BME280;33579;50.058;18.130;2023-12-28T00:21:27;99435.53;;;4.15;100.00
47815;BME280;33579;50.058;18.130;2023-12-28T00:22:29;99437.31;;;4.14;100.00
47815;BME280;33579;50.058;18.130;2023-12-28T00:23:31;99434.72;;;4.14;100.00
47815;BME280;33579;50.058;18.130;2023-12-28T00:24:33;99435.34;;;4.18;100.00
47815;BME280;33579;50.058;18.130;2023-12-28T00:25:34;99439.75;;;4.17;100.00
47815;BME280;33579;50.058;18.130;2023-12-28T00:26:36;99441.34;;;4.20;100.00
47815;BME280;33579;50.058;18.130;2023-12-28T00:27:39;99435.09;;;4.22;100.00
47815;BME280;33579;50.058;18.130;2023-12-28T00:28:41;99438.38;;;4.26;100.00
47815;BME280;33579;50.058;18.130;2023-12-28T00:29:43;99442.00;;;4.24;100.00
47815;BME280;33579;50.058;18.130;2023-12-28T00:30:45;99443.16;;;4.18;100.00
47815;BME280;33579;50.058;18.130;2023-12-28T00:31:47;99431.75;;;4.20;100.00
47815;BME280;33579;50.058;18.130;2023-12-28T00:32:49;99436.03;;;4.21;100.00
47815;BME280;33579;50.058;18.130;2023-12-28T00:33:50;99430.75;;;4.23;100.00
47815;BME280;33579;50.058;18.130;2023-12-28T00:34:52;99435.78;;;4.26;100.00
47815;BME280;33579;50.058;18.130;2023-12-28T00:35:54;99420.91;;;4.28;100.00
47815;BME280;33579;50.058;18.130;2023-12-28T00:36:56;99431.72;;;4.36;100.00
47815;BME280;33579;50.058;18.130;2023-12-28T00:37:58;99428.94;;;4.40;100.00
47815;BME280;33579;50.058;18.130;2023-12-28T00:39:02;99431.53;;;4.40;100.00
47815;BME280;33579;50.058;18.130;2023-12-28T00:40:04;99430.78;;;4.38;100.00
47815;BME280;33579;50.058;18.130;2023-12-28T00:41:06;99435.06;;;4.39;100.00
47815;BME280;33579;50.058;18.130;2023-12-28T00:42:08;99429.69;;;4.42;100.00
47815;BME280;33579;50.058;18.130;2023-12-28T00:43:10;99430.53;;;4.42;100.00
47815;BME280;33579;50.058;18.130;2023-12-28T00:44:11;99437.91;;;4.50;100.00
47815;BME280;33579;50.058;18.130;2023-12-28T00:45:13;99442.84;;;4.55;100.00
47815;BME280;33579;50.058;18.130;2023-12-28T00:46:15;99438.38;;;4.57;100.00
47815;BME280;33579;50.058;18.130;2023-12-28T00:47:17;99443.22;;;4.63;100.00
47815;BME280;33579;50.058;18.130;2023-12-28T00:48:19;99441.38;;;4.65;100.00
47815;BME280;33579;50.058;18.130;2023-12-28T00:49:21;99441.38;;;4.65;100.00
47815;BME280;33579;50.058;18.130;2023-12-28T00:50:22;99442.88;;;4.69;100.00
47815;BME280;33579;50.058;18.130;2023-12-28T00:51:25;99437.66;;;4.69;100.00
47815;BME280;33579;50.058;18.130;2023-12-28T00:52:27;99432.38;;;4.71;100.00
47815;BME280;33579;50.058;18.130;2023-12-28T00:53:29;99433.19;;;4.71;100.00
47815;BME280;33579;50.058;18.130;2023-12-28T00:54:30;99429.75;;;4.71;100.00
47815;BME280;33579;50.058;18.130;2023-12-28T00:55:32;99431.53;;;4.70;100.00
47815;BME280;33579;50.058;18.130;2023-12-28T00:56:34;99438.59;;;4.68;100.00
47815;BME280;33579;50.058;18.130;2023-12-28T00:57:36;99437.75;;;4.68;100.00
47815;BME280;33579;50.058;18.130;2023-12-28T00:58:39;99434.38;;;4.66;100.00
47815;BME280;33579;50.058;18.130;2023-12-28T00:59:41;99437.75;;;4.68;100.00
47815;BME280;33579;50.058;18.130;2023-12-28T01:00:43;99439.25;;;4.72;100.00
47815;BME280;33579;50.058;18.130;2023-12-28T01:01:45;99435.78;;;4.71;100.00
47815;BME280;33579;50.058;18.130;2023-12-28T01:02:47;99435.72;;;4.73;100.00
47815;BME280;33579;50.058;18.130;2023-12-28T01:03:49;99440.00;;;4.74;100.00
47815;BME280;33579;50.058;18.130;2023-12-28T01:04:51;99434.88;;;4.72;100.00
47815;BME280;33579;50.058;18.130;2023-12-28T01:05:53;99439.41;;;4.69;100.00
47815;BME280;33579;50.058;18.130;2023-12-28T01:06:55;99436.19;;;4.65;100.00
47815;BME280;33579;50.058;18.130;2023-12-28T01:07:57;99437.09;;;4.64;100.00
47815;BME280;33579;50.058;18.130;2023-12-28T01:09:01;99432.63;;;4.66;100.00
47815;BME280;33579;50.058;18.130;2023-12-28T01:10:03;99433.56;;;4.65;100.00
47815;BME280;33579;50.058;18.130;2023-12-28T01:11:05;99426.75;;;4.62;100.00
47815;BME280;33579;50.058;18.130;2023-12-28T01:12:07;99418.00;;;4.63;100.00
47815;BME280;33579;50.058;18.130;2023-12-28T01:13:09;99430.09;;;4.64;100.00
47815;BME280;33579;50.058;18.130;2023-12-28T01:14:10;99425.81;;;4.63;100.00
47815;BME280;33579;50.058;18.130;2023-12-28T01:15:12;99425.91;;;4.62;100.00
47815;BME280;33579;50.058;18.130;2023-12-28T01:16:14;99425.09;;;4.61;100.00
47815;BME280;33579;50.058;18.130;2023-12-28T01:17:16;99425.28;;;4.58;100.00
47815;BME280;33579;50.058;18.130;2023-12-28T01:18:18;99422.75;;;4.57;100.00
47815;BME280;33579;50.058;18.130;2023-12-28T01:19:20;99427.88;;;4.58;100.00
47815;BME280;33579;50.058;18.130;2023-12-28T01:20:23;99420.13;;;4.57;100.00
47815;BME280;33579;50.058;18.130;2023-12-28T01:21:25;99423.69;;;4.56;100.00
47815;BME280;33579;50.058;18.130;2023-12-28T01:22:27;99421.00;;;4.57;100.00
47815;BME280;33579;50.058;18.130;2023-12-28T01:23:28;99425.34;;;4.57;100.00
47815;BME280;33579;50.058;18.130;2023-12-28T01:24:30;99423.59;;;4.57;100.00
47815;BME280;33579;50.058;18.130;2023-12-28T01:25:32;99422.81;;;4.55;100.00
47815;BME280;33579;50.058;18.130;2023-12-28T01:26:34;99432.50;;;4.53;100.00
47815;BME280;33579;50.058;18.130;2023-12-28T01:27:36;99435.22;;;4.52;100.00
47815;BME280;33579;50.058;18.130;2023-12-28T01:28:38;99431.84;;;4.49;100.00
47815;BME280;33579;50.058;18.130;2023-12-28T01:29:39;99431.28;;;4.44;100.00
47815;BME280;33579;50.058;18.130;2023-12-28T01:30:41;99431.53;;;4.40;100.00
47815;BME280;33579;50.058;18.130;2023-12-28T01:31:43;99431.22;;;4.30;100.00
47815;BME280;33579;50.058;18.130;2023-12-28T01:32:45;99429.81;;;4.24;100.00
47815;BME280;33579;50.058;18.130;2023-12-28T01:33:48;99424.06;;;4.03;100.00
47815;BME280;33579;50.058;18.130;2023-12-28T01:34:50;99423.72;;;3.93;100.00
47815;BME280;33579;50.058;18.130;2023-12-28T01:35:52;99433.38;;;3.91;100.00
47815;BME280;33579;50.058;18.130;2023-12-28T01:36:53;99434.25;;;3.75;100.00
47815;BME280;33579;50.058;18.130;2023-12-28T01:37:55;99421.47;;;3.71;100.00
47815;BME280;33579;50.058;18.130;2023-12-28T01:38:57;99419.72;;;3.71;100.00
47815;BME280;33579;50.058;18.130;2023-12-28T01:40:00;99428.03;;;3.62;100.00
47815;BME280;33579;50.058;18.130;2023-12-28T01:41:02;99422.66;;;3.65;100.00
47815;BME280;33579;50.058;18.130;2023-12-28T01:42:03;99418.88;;;3.71;100.00
47815;BME280;33579;50.058;18.130;2023-12-28T01:43:05;99416.09;;;3.58;100.00
47815;BME280;33579;50.058;18.130;2023-12-28T01:44:07;99414.41;;;3.57;100.00
47815;BME280;33579;50.058;18.130;2023-12-28T01:45:09;99419.63;;;3.73;100.00
47815;BME280;33579;50.058;18.130;2023-12-28T01:46:16;99419.88;;;3.84;100.00
47815;BME280;33579;50.058;18.130;2023-12-28T01:47:18;99413.97;;;3.97;100.00
47815;BME280;33579;50.058;18.130;2023-12-28T01:48:20;99413.16;;;3.96;100.00
47815;BME280;33579;50.058;18.130;2023-12-28T01:49:23;99418.38;;;3.96;100.00
47815;BME280;33579;50.058;18.130;2023-12-28T01:50:26;99410.56;;;3.96;100.00
47815;BME280;33579;50.058;18.130;2023-12-28T01:51:28;99411.31;;;3.98;100.00
47815;BME280;33579;50.058;18.130;2023-12-28T01:52:30;99414.72;;;3.99;100.00
47815;BME280;33579;50.058;18.130;2023-12-28T01:53:32;99403.25;;;4.03;100.00
47815;BME280;33579;50.058;18.130;2023-12-28T01:54:35;99405.59;;;4.07;100.00
47815;BME280;33579;50.058;18.130;2023-12-28T01:55:38;99398.53;;;4.10;100.00
47815;BME280;33579;50.058;18.130;2023-12-28T01:56:40;99405.66;;;4.06;100.00
47815;BME280;33579;50.058;18.130;2023-12-28T01:57:42;99395.00;;;4.11;100.00
47815;BME280;33579;50.058;18.130;2023-12-28T01:58:46;99399.94;;;4.15;100.00
47815;BME280;33579;50.058;18.130;2023-12-28T01:59:51;99399.28;;;4.12;100.00
47815;BME280;33579;50.058;18.130;2023-12-28T02:00:55;99397.59;;;4.11;100.00
47815;BME280;33579;50.058;18.130;2023-12-28T02:01:58;99399.28;;;4.12;100.00
47815;BME280;33579;50.058;18.130;2023-12-28T02:03:00;99402.69;;;4.12;100.00
47815;BME280;33579;50.058;18.130;2023-12-28T02:04:03;99393.38;;;4.08;100.00
47815;BME280;33579;50.058;18.130;2023-12-28T02:05:07;99396.66;;;4.12;100.00
47815;BME280;33579;50.058;18.130;2023-12-28T02:06:09;99396.75;;;4.10;100.00
47815;BME280;33579;50.058;18.130;2023-12-28T02:07:13;99399.09;;;4.15;100.00
47815;BME280;33579;50.058;18.130;2023-12-28T02:08:15;99401.69;;;4.15;100.00
47815;BME280;33579;50.058;18.130;2023-12-28T02:09:17;99396.28;;;4.18;100.00
47815;BME280;33579;50.058;18.130;2023-12-28T02:10:19;99403.97;;;4.21;100.00
47815;BME280;33579;50.058;18.130;2023-12-28T02:11:21;99402.09;;;4.23;100.00
47815;BME280;33579;50.058;18.130;2023-12-28T02:12:23;99405.53;;;4.24;100.00
47815;BME280;33579;50.058;18.130;2023-12-28T02:13:25;99397.44;;;4.28;100.00
47815;BME280;33579;50.058;18.130;2023-12-28T02:14:27;99394.84;;;4.28;100.00
47815;BME280;33579;50.058;18.130;2023-12-28T02:15:29;99387.41;;;4.22;100.00
47815;BME280;33579;50.058;18.130;2023-12-28T02:16:40;99391.41;;;4.28;100.00
47815;BME280;33579;50.058;18.130;2023-12-28T02:18:16;99389.34;;;4.18;100.00
47815;BME280;33579;50.058;18.130;2023-12-28T02:20:34;99384.25;;;4.01;100.00
47815;BME280;33579;50.058;18.130;2023-12-28T02:21:36;99386.19;;;3.97;100.00
47815;BME280;33579;50.058;18.130;2023-12-28T02:22:39;99378.53;;;3.94;100.00
47815;BME280;33579;50.058;18.130;2023-12-28T02:23:49;99386.28;;;3.96;100.00
47815;BME280;33579;50.058;18.130;2023-12-28T02:26:08;99382.66;;;3.98;100.00
47815;BME280;33579;50.058;18.130;2023-12-28T02:27:10;99379.97;;;4.00;100.00
47815;BME280;33579;50.058;18.130;2023-12-28T02:28:12;99387.78;;;4.00;100.00
47815;BME280;33579;50.058;18.130;2023-12-28T02:29:13;99376.53;;;3.99;100.00
47815;BME280;33579;50.058;18.130;2023-12-28T02:30:17;99373.81;;;4.01;100.00
47815;BME280;33579;50.058;18.130;2023-12-28T02:31:34;99378.78;;;4.05;100.00
47815;BME280;33579;50.058;18.130;2023-12-28T02:33:02;99379.56;;;4.07;100.00
47815;BME280;33579;50.058;18.130;2023-12-28T02:34:15;99372.00;;;4.03;100.00
47815;BME280;33579;50.058;18.130;2023-12-28T02:35:25;99364.19;;;4.03;100.00
47815;BME280;33579;50.058;18.130;2023-12-28T02:36:27;99371.88;;;4.04;100.00
47815;BME280;33579;50.058;18.130;2023-12-28T02:37:30;99371.81;;;4.06;100.00
47815;BME280;33579;50.058;18.130;2023-12-28T02:38:36;99366.41;;;4.09;100.00
47815;BME280;33579;50.058;18.130;2023-12-28T02:39:39;99355.06;;;4.10;100.00
47815;BME280;33579;50.058;18.130;2023-12-28T02:40:43;99366.16;;;4.14;100.00
47815;BME280;33579;50.058;18.130;2023-12-28T02:41:46;99362.63;;;4.15;100.00
47815;BME280;33579;50.058;18.130;2023-12-28T02:42:48;99362.56;;;4.16;100.00
47815;BME280;33579;50.058;18.130;2023-12-28T02:43:51;99355.75;;;4.14;100.00
47815;BME280;33579;50.058;18.130;2023-12-28T02:44:53;99346.44;;;4.10;100.00
47815;BME280;33579;50.058;18.130;2023-12-28T02:45:55;99345.59;;;4.09;100.00
47815;BME280;33579;50.058;18.130;2023-12-28T02:46:56;99335.28;;;4.07;100.00
47815;BME280;33579;50.058;18.130;2023-12-28T02:47:58;99338.72;;;4.08;100.00
47815;BME280;33579;50.058;18.130;2023-12-28T02:49:00;99335.19;;;4.09;100.00
47815;BME280;33579;50.058;18.130;2023-12-28T02:50:03;99335.09;;;4.11;100.00
47815;BME280;33579;50.058;18.130;2023-12-28T02:51:05;99327.09;;;4.14;100.00
47815;BME280;33579;50.058;18.130;2023-12-28T02:52:07;99333.72;;;4.19;100.00
47815;BME280;33579;50.058;18.130;2023-12-28T02:53:09;99327.19;;;4.12;100.00
47815;BME280;33579;50.058;18.130;2023-12-28T02:54:10;99337.03;;;4.07;100.00
47815;BME280;33579;50.058;18.130;2023-12-28T02:55:12;99340.56;;;4.06;100.00
47815;BME280;33579;50.058;18.130;2023-12-28T02:56:14;99343.72;;;4.11;100.00
47815;BME280;33579;50.058;18.130;2023-12-28T02:57:16;99353.06;;;4.15;100.00
47815;BME280;33579;50.058;18.130;2023-12-28T02:58:18;99356.31;;;4.19;100.00
47815;BME280;33579;50.058;18.130;2023-12-28T02:59:19;99358.09;;;4.18;100.00
47815;BME280;33579;50.058;18.130;2023-12-28T03:00:21;99359.84;;;4.18;100.00
47815;BME280;33579;50.058;18.130;2023-12-28T03:01:23;99353.63;;;4.20;100.00
47815;BME280;33579;50.058;18.130;2023-12-28T03:02:25;99354.97;;;4.28;100.00
47815;BME280;33579;50.058;18.130;2023-12-28T03:03:27;99356.53;;;4.30;100.00
47815;BME280;33579;50.058;18.130;2023-12-28T03:04:29;99358.97;;;4.33;100.00
47815;BME280;33579;50.058;18.130;2023-12-28T03:05:31;99354.50;;;4.35;100.00
47815;BME280;33579;50.058;18.130;2023-12-28T03:06:33;99354.41;;;4.37;100.00
47815;BME280;33579;50.058;18.130;2023-12-28T03:07:35;99342.97;;;4.40;100.00
47815;BME280;33579;50.058;18.130;2023-12-28T03:08:37;99343.25;;;4.49;100.00
47815;BME280;33579;50.058;18.130;2023-12-28T03:09:39;99342.25;;;4.52;100.00
47815;BME280;33579;50.058;18.130;2023-12-28T03:10:41;99348.03;;;4.57;100.00
47815;BME280;33579;50.058;18.130;2023-12-28T03:11:42;99347.25;;;4.55;100.00
47815;BME280;33579;50.058;18.130;2023-12-28T03:12:44;99352.59;;;4.54;100.00
47815;BME280;33579;50.058;18.130;2023-12-28T03:13:46;99355.06;;;4.55;100.00
47815;BME280;33579;50.058;18.130;2023-12-28T03:14:48;99351.47;;;4.58;100.00
47815;BME280;33579;50.058;18.130;2023-12-28T03:15:49;99347.44;;;4.52;100.00
47815;BME280;33579;50.058;18.130;2023-12-28T03:16:51;99356.00;;;4.54;100.00
47815;BME280;33579;50.058;18.130;2023-12-28T03:17:53;99355.00;;;4.57;100.00
47815;BME280;33579;50.058;18.130;2023-12-28T03:18:56;99354.16;;;4.56;100.00
47815;BME280;33579;50.058;18.130;2023-12-28T03:19:58;99359.28;;;4.58;100.00
47815;BME280;33579;50.058;18.130;2023-12-28T03:21:00;99356.75;;;4.56;100.00
47815;BME280;33579;50.058;18.130;2023-12-28T03:22:02;99363.47;;;4.60;100.00
47815;BME280;33579;50.058;18.130;2023-12-28T03:23:04;99365.81;;;4.65;100.00
47815;BME280;33579;50.058;18.130;2023-12-28T03:24:06;99366.75;;;4.64;100.00
47815;BME280;33579;50.058;18.130;2023-12-28T03:25:08;99364.22;;;4.62;100.00
47815;BME280;33579;50.058;18.130;2023-12-28T03:26:10;99361.88;;;4.58;100.00
47815;BME280;33579;50.058;18.130;2023-12-28T03:27:11;99358.06;;;4.49;100.00
47815;BME280;33579;50.058;18.130;2023-12-28T03:28:13;99357.59;;;4.42;100.00
47815;BME280;33579;50.058;18.130;2023-12-28T03:29:15;99347.16;;;4.42;100.00
47815;BME280;33579;50.058;18.130;2023-12-28T03:30:17;99350.69;;;4.41;100.00
47815;BME280;33579;50.058;18.130;2023-12-28T03:31:19;99344.81;;;4.38;100.00
47815;BME280;33579;50.058;18.130;2023-12-28T03:32:20;99340.75;;;4.33;100.00
47815;BME280;33579;50.058;18.130;2023-12-28T03:33:24;99341.28;;;4.39;100.00
47815;BME280;33579;50.058;18.130;2023-12-28T03:34:26;99342.16;;;4.39;100.00
47815;BME280;33579;50.058;18.130;2023-12-28T03:35:28;99348.25;;;4.38;100.00
47815;BME280;33579;50.058;18.130;2023-12-28T03:36:30;99349.78;;;4.42;100.00
47815;BME280;33579;50.058;18.130;2023-12-28T03:37:32;99341.97;;;4.42;100.00
47815;BME280;33579;50.058;18.130;2023-12-28T03:38:34;99350.50;;;4.44;100.00
47815;BME280;33579;50.058;18.130;2023-12-28T03:39:36;99344.19;;;4.48;100.00
47815;BME280;33579;50.058;18.130;2023-12-28T03:40:38;99355.25;;;4.38;100.00
47815;BME280;33579;50.058;18.130;2023-12-28T03:41:40;99353.47;;;4.38;100.00
47815;BME280;33579;50.058;18.130;2023-12-28T03:42:42;99348.38;;;4.36;100.00
47815;BME280;33579;50.058;18.130;2023-12-28T03:43:44;99352.44;;;4.41;100.00
47815;BME280;33579;50.058;18.130;2023-12-28T03:44:46;99362.31;;;4.35;100.00
47815;BME280;33579;50.058;18.130;2023-12-28T03:45:47;99358.19;;;4.31;100.00
47815;BME280;33579;50.058;18.130;2023-12-28T03:46:50;99356.53;;;4.30;100.00
47815;BME280;33579;50.058;18.130;2023-12-28T03:47:52;99351.75;;;4.22;100.00
47815;BME280;33579;50.058;18.130;2023-12-28T03:48:54;99350.75;;;4.25;100.00
47815;BME280;33579;50.058;18.130;2023-12-28T03:49:56;99356.72;;;4.27;100.00
47815;BME280;33579;50.058;18.130;2023-12-28T03:50:58;99357.19;;;4.34;100.00
47815;BME280;33579;50.058;18.130;2023-12-28T03:52:00;99349.09;;;4.39;100.00
47815;BME280;33579;50.058;18.130;2023-12-28T03:53:03;99353.66;;;4.35;100.00
47815;BME280;33579;50.058;18.130;2023-12-28T03:54:05;99359.31;;;4.27;100.00
47815;BME280;33579;50.058;18.130;2023-12-28T03:55:07;99362.84;;;4.26;100.00
47815;BME280;33579;50.058;18.130;2023-12-28T03:56:27;99361.84;;;4.29;100.00
47815;BME280;33579;50.058;18.130;2023-12-28T03:57:29;99358.38;;;4.28;100.00
47815;BME280;33579;50.058;18.130;2023-12-28T03:58:31;99362.94;;;4.25;100.00
47815;BME280;33579;50.058;18.130;2023-12-28T03:59:32;99360.31;;;4.25;100.00
47815;BME280;33579;50.058;18.130;2023-12-28T04:00:35;99354.09;;;4.27;100.00
47815;BME280;33579;50.058;18.130;2023-12-28T04:01:38;99347.22;;;4.26;100.00
47815;BME280;33579;50.058;18.130;2023-12-28T04:02:40;99346.97;;;4.31;100.00
47815;BME280;33579;50.058;18.130;2023-12-28T04:03:42;99344.09;;;4.35;100.00
47815;BME280;33579;50.058;18.130;2023-12-28T04:04:44;99349.03;;;4.40;100.00
47815;BME280;33579;50.058;18.130;2023-12-28T04:05:46;99354.06;;;4.43;100.00
47815;BME280;33579;50.058;18.130;2023-12-28T04:06:48;99351.44;;;4.43;100.00
47815;BME280;33579;50.058;18.130;2023-12-28T04:07:50;99360.19;;;4.42;100.00
47815;BME280;33579;50.058;18.130;2023-12-28T04:08:51;99368.34;;;4.36;100.00
47815;BME280;33579;50.058;18.130;2023-12-28T04:09:53;99379.97;;;4.30;100.00
47815;BME280;33579;50.058;18.130;2023-12-28T04:10:55;99384.53;;;4.27;100.00
47815;BME280;33579;50.058;18.130;2023-12-28T04:11:57;99379.97;;;4.30;100.00
47815;BME280;33579;50.058;18.130;2023-12-28T04:12:59;99391.50;;;4.26;100.00
47815;BME280;33579;50.058;18.130;2023-12-28T04:14:01;99385.28;;;4.29;100.00
47815;BME280;33579;50.058;18.130;2023-12-28T04:15:03;99393.91;;;4.29;100.00
47815;BME280;33579;50.058;18.130;2023-12-28T04:16:05;99383.59;;;4.28;100.00
47815;BME280;33579;50.058;18.130;2023-12-28T04:17:07;99387.22;;;4.25;100.00
47815;BME280;33579;50.058;18.130;2023-12-28T04:18:08;99384.69;;;4.24;100.00
47815;BME280;33579;50.058;18.130;2023-12-28T04:19:11;99380.66;;;4.18;100.00
47815;BME280;33579;50.058;18.130;2023-12-28T04:20:13;99383.16;;;4.05;100.00
47815;BME280;33579;50.058;18.130;2023-12-28T04:21:14;99387.88;;;3.98;100.00
47815;BME280;33579;50.058;18.130;2023-12-28T04:22:16;99393.09;;;3.82;100.00
47815;BME280;33579;50.058;18.130;2023-12-28T04:23:18;99386.78;;;3.70;100.00
47815;BME280;33579;50.058;18.130;2023-12-28T04:24:20;99388.50;;;3.71;100.00
47815;BME280;33579;50.058;18.130;2023-12-28T04:25:22;99385.78;;;3.73;100.00
47815;BME280;33579;50.058;18.130;2023-12-28T04:26:24;99383.31;;;3.71;100.00
47815;BME280;33579;50.058;18.130;2023-12-28T04:27:25;99378.91;;;3.72;100.00
47815;BME280;33579;50.058;18.130;2023-12-28T04:28:27;99373.78;;;3.70;100.00
47815;BME280;33579;50.058;18.130;2023-12-28T04:29:29;99371.72;;;3.77;100.00
47815;BME280;33579;50.058;18.130;2023-12-28T04:30:31;99380.91;;;3.83;100.00
47815;BME280;33579;50.058;18.130;2023-12-28T04:31:33;99382.25;;;3.90;100.00
47815;BME280;33579;50.058;18.130;2023-12-28T04:32:35;99376.59;;;3.98;100.00
47815;BME280;33579;50.058;18.130;2023-12-28T04:33:37;99381.31;;;4.07;100.00
47815;BME280;33579;50.058;18.130;2023-12-28T04:34:39;99374.97;;;4.11;100.00
47815;BME280;33579;50.058;18.130;2023-12-28T04:35:41;99375.56;;;4.16;100.00
47815;BME280;33579;50.058;18.130;2023-12-28T04:36:43;99380.53;;;4.21;100.00
47815;BME280;33579;50.058;18.130;2023-12-28T04:37:45;99375.13;;;4.24;100.00
47815;BME280;33579;50.058;18.130;2023-12-28T04:38:47;99373.06;;;4.29;100.00
47815;BME280;33579;50.058;18.130;2023-12-28T04:39:49;99360.81;;;4.31;100.00
47815;BME280;33579;50.058;18.130;2023-12-28T04:40:51;99359.91;;;4.32;100.00
47815;BME280;33579;50.058;18.130;2023-12-28T04:41:52;99363.06;;;4.38;100.00
47815;BME280;33579;50.058;18.130;2023-12-28T04:42:54;99361.28;;;4.38;100.00
47815;BME280;33579;50.058;18.130;2023-12-28T04:43:56;99356.00;;;4.40;100.00
47815;BME280;33579;50.058;18.130;2023-12-28T04:44:58;99361.94;;;4.42;100.00
47815;BME280;33579;50.058;18.130;2023-12-28T04:46:03;99360.00;;;4.45;100.00
47815;BME280;33579;50.058;18.130;2023-12-28T04:47:06;99353.38;;;4.40;100.00
47815;BME280;33579;50.058;18.130;2023-12-28T04:48:07;99362.69;;;4.44;100.00
47815;BME280;33579;50.058;18.130;2023-12-28T04:49:10;99360.38;;;4.39;100.00
47815;BME280;33579;50.058;18.130;2023-12-28T04:50:13;99367.41;;;4.37;100.00
47815;BME280;33579;50.058;18.130;2023-12-28T04:51:14;99369.38;;;4.33;100.00
47815;BME280;33579;50.058;18.130;2023-12-28T04:52:16;99385.09;;;4.32;100.00
47815;BME280;33579;50.058;18.130;2023-12-28T04:53:18;99382.56;;;4.30;100.00
47815;BME280;33579;50.058;18.130;2023-12-28T04:54:20;99388.38;;;4.35;100.00
47815;BME280;33579;50.058;18.130;2023-12-28T04:55:22;99378.63;;;4.39;100.00
47815;BME280;33579;50.058;18.130;2023-12-28T04:56:23;99378.50;;;4.41;100.00
47815;BME280;33579;50.058;18.130;2023-12-28T04:57:25;99385.97;;;4.47;100.00
47815;BME280;33579;50.058;18.130;2023-12-28T04:58:27;99387.66;;;4.48;100.00
47815;BME280;33579;50.058;18.130;2023-12-28T04:59:29;99385.53;;;4.55;100.00
47815;BME280;33579;50.058;18.130;2023-12-28T05:00:31;99383.66;;;4.57;100.00
47815;BME280;33579;50.058;18.130;2023-12-28T05:01:33;99369.03;;;4.54;100.00
47815;BME280;33579;50.058;18.130;2023-12-28T05:02:35;99368.41;;;4.65;100.00
47815;BME280;33579;50.058;18.130;2023-12-28T05:03:36;99368.50;;;4.63;100.00
47815;BME280;33579;50.058;18.130;2023-12-28T05:04:38;99366.09;;;4.60;100.00
47815;BME280;33579;50.058;18.130;2023-12-28T05:05:40;99373.78;;;4.62;100.00
47815;BME280;33579;50.058;18.130;2023-12-28T05:06:42;99379.94;;;4.61;100.00
47815;BME280;33579;50.058;18.130;2023-12-28T05:07:44;99370.38;;;4.61;100.00
47815;BME280;33579;50.058;18.130;2023-12-28T05:08:45;99372.38;;;4.56;100.00
47815;BME280;33579;50.058;18.130;2023-12-28T05:09:47;99361.22;;;4.54;100.00
47815;BME280;33579;50.058;18.130;2023-12-28T05:10:49;99355.84;;;4.57;100.00
47815;BME280;33579;50.058;18.130;2023-12-28T05:11:51;99348.50;;;4.64;100.00
47815;BME280;33579;50.058;18.130;2023-12-28T05:12:53;99350.25;;;4.63;100.00
47815;BME280;33579;50.058;18.130;2023-12-28T05:14:01;99354.91;;;4.73;100.00
47815;BME280;33579;50.058;18.130;2023-12-28T05:15:03;99352.31;;;4.73;100.00
47815;BME280;33579;50.058;18.130;2023-12-28T05:16:05;99357.34;;;4.76;100.00
47815;BME280;33579;50.058;18.130;2023-12-28T05:17:07;99364.03;;;4.80;100.00
47815;BME280;33579;50.058;18.130;2023-12-28T05:18:11;99365.44;;;4.71;100.00
47815;BME280;33579;50.058;18.130;2023-12-28T05:19:13;99367.56;;;4.64;100.00
47815;BME280;33579;50.058;18.130;2023-12-28T05:20:15;99365.88;;;4.63;100.00
47815;BME280;33579;50.058;18.130;2023-12-28T05:21:17;99356.41;;;4.62;100.00
47815;BME280;33579;50.058;18.130;2023-12-28T05:22:19;99368.31;;;4.67;100.00
47815;BME280;33579;50.058;18.130;2023-12-28T05:23:20;99363.28;;;4.63;100.00
47815;BME280;33579;50.058;18.130;2023-12-28T05:24:22;99373.53;;;4.67;100.00
47815;BME280;33579;50.058;18.130;2023-12-28T05:25:24;99370.16;;;4.64;100.00
47815;BME280;33579;50.058;18.130;2023-12-28T05:26:26;99375.09;;;4.55;100.00
47815;BME280;33579;50.058;18.130;2023-12-28T05:27:28;99368.47;;;4.49;100.00
47815;BME280;33579;50.058;18.130;2023-12-28T05:28:29;99369.50;;;4.46;100.00
47815;BME280;33579;50.058;18.130;2023-12-28T05:29:31;99378.63;;;4.39;100.00